createdAt,value
2022-11-18T00:00:55.373Z,8.93
2022-11-18T00:01:58.433Z,8.30
2022-11-18T00:03:05.738Z,10.27
2022-11-18T00:04:08.557Z,9.10
2022-11-18T00:05:15.333Z,9.00
2022-11-18T00:06:20.318Z,9.90
2022-11-18T00:07:23.668Z,9.82
2022-11-18T00:08:30.578Z,9.77
2022-11-18T00:09:33.574Z,11.32
2022-11-18T00:10:40.056Z,9.13
2022-11-18T00:12:01.640Z,9.63
2022-11-18T00:13:22.571Z,10.80
2022-11-18T00:14:27.834Z,10.70
2022-11-18T00:15:31.933Z,9.32
2022-11-18T00:16:33.812Z,10.27
2022-11-18T00:17:38.925Z,9.75
2022-11-18T00:18:40.846Z,10.55
2022-11-18T00:19:43.649Z,9.88
2022-11-18T00:20:45.246Z,9.10
2022-11-18T00:21:46.828Z,10.00
2022-11-18T00:22:48.928Z,8.52
2022-11-18T00:23:54.227Z,9.18
2022-11-18T00:24:58.100Z,9.48
2022-11-18T00:26:04.994Z,8.48
2022-11-18T00:27:07.057Z,11.50
2022-11-18T00:28:11.324Z,10.20
2022-11-18T00:29:14.555Z,10.25
2022-11-18T00:30:18.157Z,9.15
2022-11-18T00:31:19.904Z,10.35
2022-11-18T00:32:25.070Z,8.90
2022-11-18T00:33:27.288Z,10.65
2022-11-18T00:34:29.882Z,11.13
2022-11-18T00:35:31.567Z,8.93
2022-11-18T00:36:33.959Z,11.27
2022-11-18T00:37:36.025Z,9.35
2022-11-18T00:38:38.638Z,10.45
2022-11-18T00:39:41.442Z,10.07
2022-11-18T00:40:47.094Z,11.02
2022-11-18T00:42:17.023Z,10.35
2022-11-18T00:43:22.310Z,9.40
2022-11-18T00:44:25.448Z,9.38
2022-11-18T00:45:28.372Z,9.30
2022-11-18T00:46:31.878Z,8.55
2022-11-18T00:47:34.380Z,7.82
2022-11-18T00:48:39.329Z,9.93
2022-11-18T00:49:44.218Z,8.80
2022-11-18T00:50:55.023Z,10.32
2022-11-18T00:51:59.983Z,8.45
2022-11-18T00:53:04.164Z,8.15
2022-11-18T00:54:06.325Z,10.20
2022-11-18T00:55:12.025Z,10.13
2022-11-18T00:56:13.847Z,9.95
2022-11-18T00:57:15.858Z,12.45
2022-11-18T00:58:18.322Z,10.93
2022-11-18T00:59:21.114Z,10.75
2022-11-18T01:00:23.871Z,11.85
2022-11-18T01:01:27.125Z,13.02
2022-11-18T01:02:32.098Z,14.85
2022-11-18T01:03:35.071Z,17.15
2022-11-18T01:04:36.923Z,15.27
2022-11-18T01:05:40.370Z,15.95
2022-11-18T01:06:43.062Z,13.55
2022-11-18T01:07:46.350Z,15.10
2022-11-18T01:08:52.055Z,14.77
2022-11-18T01:09:53.853Z,13.05
2022-11-18T01:11:16.591Z,12.30
2022-11-18T01:12:39.670Z,12.05
2022-11-18T01:13:44.882Z,10.32
2022-11-18T01:14:47.787Z,11.60
2022-11-18T01:16:01.537Z,10.70
2022-11-18T01:17:04.473Z,10.57
2022-11-18T01:18:08.342Z,10.32
2022-11-18T01:19:10.911Z,10.88
2022-11-18T01:20:13.264Z,10.38
2022-11-18T01:21:14.895Z,9.63
2022-11-18T01:22:16.955Z,10.25
2022-11-18T01:23:20.564Z,10.50
2022-11-18T01:24:25.411Z,10.57
2022-11-18T01:25:30.667Z,9.25
2022-11-18T01:26:32.843Z,9.82
2022-11-18T01:27:35.580Z,10.05
2022-11-18T01:28:39.062Z,10.82
2022-11-18T01:29:40.899Z,10.15
2022-11-18T01:30:42.892Z,9.93
2022-11-18T01:32:09.220Z,9.57
2022-11-18T01:33:10.016Z,8.63
2022-11-18T01:34:12.763Z,8.40
2022-11-18T01:35:15.213Z,8.57
2022-11-18T01:36:24.599Z,8.25
2022-11-18T01:37:26.867Z,7.53
2022-11-18T01:38:29.737Z,7.22
2022-11-18T01:39:34.119Z,8.52
2022-11-18T01:40:38.967Z,7.80
2022-11-18T01:41:40.868Z,8.07
2022-11-18T01:42:42.866Z,7.63
2022-11-18T01:44:06.225Z,8.13
2022-11-18T01:45:28.255Z,7.18
2022-11-18T01:46:32.193Z,8.75
2022-11-18T01:47:46.021Z,7.43
2022-11-18T01:48:51.935Z,8.93
2022-11-18T01:49:55.327Z,11.27
2022-11-18T01:51:09.217Z,8.82
2022-11-18T01:52:11.886Z,9.38
2022-11-18T01:53:24.951Z,11.52
2022-11-18T01:54:31.327Z,11.85
2022-11-18T01:55:37.815Z,15.15
2022-11-18T01:56:47.611Z,16.92
2022-11-18T01:57:54.484Z,13.75
2022-11-18T01:59:01.938Z,13.07
2022-11-18T02:00:06.662Z,13.07
2022-11-18T02:01:10.080Z,13.18
2022-11-18T02:02:14.859Z,15.02
2022-11-18T02:03:18.704Z,14.65
2022-11-18T02:04:21.619Z,11.23
2022-11-18T02:05:27.587Z,12.82
2022-11-18T02:06:30.836Z,12.63
2022-11-18T02:07:39.073Z,12.57
2022-11-18T02:08:41.986Z,11.93
2022-11-18T02:09:44.335Z,10.93
2022-11-18T02:10:46.874Z,11.43
2022-11-18T02:11:51.909Z,12.70
2022-11-18T02:12:56.255Z,13.02
2022-11-18T02:13:59.503Z,13.55
2022-11-18T02:15:03.807Z,12.80
2022-11-18T02:16:22.946Z,15.50
2022-11-18T02:17:31.076Z,18.27
2022-11-18T02:18:57.895Z,15.73
2022-11-18T02:20:30.352Z,16.20
2022-11-18T02:21:56.318Z,14.30
2022-11-18T02:23:25.863Z,12.52
2022-11-18T02:24:43.941Z,10.40
2022-11-18T02:26:04.363Z,12.73
2022-11-18T02:27:46.087Z,9.52
2022-11-18T02:29:06.639Z,11.43
2022-11-18T02:30:13.747Z,9.40
2022-11-18T02:32:08.898Z,9.75
2022-11-18T02:33:17.710Z,9.82
2022-11-18T02:35:11.683Z,9.57
2022-11-18T02:36:30.399Z,9.82
2022-11-18T02:37:54.526Z,8.80
2022-11-18T02:39:09.158Z,10.60
2022-11-18T02:40:20.137Z,9.20
2022-11-18T02:41:29.992Z,11.48
2022-11-18T02:42:34.862Z,12.20
2022-11-18T02:44:10.138Z,12.18
2022-11-18T02:45:19.063Z,12.00
2022-11-18T02:46:30.925Z,13.63
2022-11-18T02:47:35.248Z,11.02
2022-11-18T02:48:46.815Z,16.58
2022-11-18T02:49:54.054Z,11.70
2022-11-18T02:50:56.104Z,15.18
2022-11-18T02:51:59.744Z,10.85
2022-11-18T02:53:06.512Z,11.65
2022-11-18T02:54:10.893Z,13.10
2022-11-18T02:55:15.612Z,16.73
2022-11-18T02:56:20.466Z,28.10
2022-11-18T02:57:25.847Z,44.17
2022-11-18T02:58:28.130Z,48.08
2022-11-18T02:59:29.767Z,47.65
2022-11-18T03:00:33.510Z,41.73
2022-11-18T03:01:36.589Z,14.07
2022-11-18T03:02:46.444Z,18.33
2022-11-18T03:03:48.438Z,33.95
2022-11-18T03:04:56.231Z,16.08
2022-11-18T03:06:16.477Z,16.30
2022-11-18T03:07:36.872Z,11.68
2022-11-18T03:09:03.823Z,17.70
2022-11-18T03:10:07.010Z,13.50
2022-11-18T03:11:16.540Z,11.57
2022-11-18T03:12:24.527Z,8.75
2022-11-18T03:13:35.902Z,9.95
2022-11-18T03:15:19.022Z,8.98
2022-11-18T03:17:02.790Z,12.80
2022-11-18T03:18:16.637Z,13.18
2022-11-18T03:19:23.969Z,9.40
2022-11-18T03:20:36.180Z,9.45
2022-11-18T03:21:47.999Z,8.32
2022-11-18T03:23:08.722Z,11.85
2022-11-18T03:24:33.710Z,7.20
2022-11-18T03:26:09.822Z,7.72
2022-11-18T03:27:44.137Z,8.18
2022-11-18T03:28:55.208Z,9.77
2022-11-18T03:30:16.594Z,10.30
2022-11-18T03:31:33.902Z,11.90
2022-11-18T03:32:42.723Z,14.98
2022-11-18T03:34:29.055Z,13.38
2022-11-18T03:35:35.774Z,15.88
2022-11-18T03:36:47.784Z,16.42
2022-11-18T03:38:05.016Z,12.93
2022-11-18T03:39:11.231Z,12.80
2022-11-18T03:40:28.657Z,11.80
2022-11-18T03:41:34.707Z,13.50
2022-11-18T03:43:03.338Z,12.52
2022-11-18T03:44:14.475Z,12.70
2022-11-18T03:45:39.658Z,13.20
2022-11-18T03:46:52.166Z,13.23
2022-11-18T03:48:16.442Z,11.82
2022-11-18T03:49:35.655Z,12.45
2022-11-18T03:50:52.182Z,12.70
2022-11-18T03:51:58.497Z,13.10
2022-11-18T03:53:02.898Z,14.48
2022-11-18T03:54:13.946Z,12.05
2022-11-18T03:55:24.754Z,11.75
2022-11-18T03:56:39.407Z,15.02
2022-11-18T03:57:54.759Z,11.85
2022-11-18T03:59:25.550Z,19.15
2022-11-18T04:00:33.978Z,11.00
2022-11-18T04:01:46.430Z,15.05
2022-11-18T04:02:50.549Z,13.40
2022-11-18T04:03:53.020Z,12.57
2022-11-18T04:04:58.303Z,12.15
2022-11-18T04:06:18.528Z,17.52
2022-11-18T04:07:47.192Z,15.90
2022-11-18T04:08:56.655Z,13.18
2022-11-18T04:10:23.216Z,16.90
2022-11-18T04:11:59.382Z,25.73
2022-11-18T04:13:09.819Z,22.77
2022-11-18T04:14:14.257Z,14.20
2022-11-18T04:15:17.458Z,13.70
2022-11-18T04:16:20.818Z,10.45
2022-11-18T04:17:27.071Z,31.20
2022-11-18T04:18:29.168Z,11.77
2022-11-18T04:19:33.231Z,13.20
2022-11-18T04:20:37.159Z,13.13
2022-11-18T04:21:38.958Z,15.25
2022-11-18T04:22:41.752Z,12.85
2022-11-18T04:23:43.938Z,12.35
2022-11-18T04:24:47.215Z,20.98
2022-11-18T04:25:48.940Z,13.68
2022-11-18T04:26:51.696Z,13.80
2022-11-18T04:27:53.999Z,16.48
2022-11-18T04:28:56.276Z,13.40
2022-11-18T04:29:57.957Z,10.80
2022-11-18T04:31:03.067Z,16.15
2022-11-18T04:32:05.776Z,17.75
2022-11-18T04:33:09.185Z,15.80
2022-11-18T04:34:11.026Z,18.75
2022-11-18T04:35:14.501Z,15.88
2022-11-18T04:36:16.300Z,16.05
2022-11-18T04:37:18.039Z,9.50
2022-11-18T04:38:22.043Z,12.98
2022-11-18T04:39:24.136Z,10.48
2022-11-18T04:40:25.934Z,9.63
2022-11-18T04:41:46.692Z,9.73
2022-11-18T04:42:49.033Z,10.02
2022-11-18T04:43:52.712Z,10.60
2022-11-18T04:44:55.076Z,9.15
2022-11-18T04:45:56.983Z,9.02
2022-11-18T04:47:03.512Z,8.15
2022-11-18T04:48:09.102Z,9.50
2022-11-18T04:49:19.069Z,7.30
2022-11-18T04:50:24.163Z,8.43
2022-11-18T04:51:25.983Z,7.93
2022-11-18T04:52:28.068Z,8.27
2022-11-18T04:53:29.663Z,8.98
2022-11-18T04:54:35.163Z,7.00
2022-11-18T04:55:40.263Z,6.80
2022-11-18T04:56:49.350Z,6.20
2022-11-18T04:57:51.959Z,7.35
2022-11-18T04:58:54.840Z,7.10
2022-11-18T04:59:56.840Z,6.93
2022-11-18T05:00:58.982Z,7.25
2022-11-18T05:02:04.562Z,10.48
2022-11-18T05:03:06.143Z,9.33
2022-11-18T05:04:08.300Z,8.18
2022-11-18T05:05:09.974Z,8.20
2022-11-18T05:06:11.789Z,8.00
2022-11-18T05:07:16.204Z,8.07
2022-11-18T05:08:21.590Z,8.95
2022-11-18T05:09:30.259Z,9.82
2022-11-18T05:10:34.602Z,9.13
2022-11-18T05:11:55.721Z,10.23
2022-11-18T05:12:57.330Z,9.88
2022-11-18T05:13:59.010Z,8.60
2022-11-18T05:15:02.048Z,10.25
2022-11-18T05:16:04.124Z,9.18
2022-11-18T05:17:10.648Z,10.43
2022-11-18T05:19:49.983Z,7.57
2022-11-18T05:20:51.595Z,9.80
2022-11-18T05:21:57.694Z,9.38
2022-11-18T05:22:59.984Z,9.55
2022-11-18T05:24:05.522Z,11.05
2022-11-18T05:25:09.810Z,10.20
2022-11-18T05:26:12.643Z,9.90
2022-11-18T05:27:15.710Z,9.23
2022-11-18T05:28:17.963Z,10.15
2022-11-18T05:29:21.956Z,10.43
2022-11-18T05:30:23.980Z,11.98
2022-11-18T05:31:26.235Z,12.55
2022-11-18T05:32:31.486Z,13.65
2022-11-18T05:33:34.032Z,8.18
2022-11-18T05:34:36.938Z,7.90
2022-11-18T05:35:40.471Z,9.50
2022-11-18T05:36:43.574Z,9.57
2022-11-18T05:37:45.961Z,6.72
2022-11-18T05:38:51.039Z,7.75
2022-11-18T05:39:53.017Z,7.07
2022-11-18T05:40:55.328Z,7.30
2022-11-18T05:42:17.176Z,9.35
2022-11-18T05:43:20.511Z,8.53
2022-11-18T05:44:23.310Z,8.75
2022-11-18T05:45:26.044Z,8.32
2022-11-18T05:46:31.334Z,7.93
2022-11-18T05:47:54.747Z,6.38
2022-11-18T05:48:57.227Z,6.75
2022-11-18T05:49:58.988Z,6.03
2022-11-18T05:51:03.222Z,7.68
2022-11-18T05:52:05.472Z,6.38
2022-11-18T05:53:10.840Z,6.75
2022-11-18T05:54:14.968Z,6.85
2022-11-18T05:55:19.687Z,7.22
2022-11-18T05:56:36.571Z,6.82
2022-11-18T05:57:38.995Z,6.93
2022-11-18T05:58:41.678Z,6.53
2022-11-18T05:59:43.963Z,7.32
2022-11-18T06:00:52.266Z,6.95
2022-11-18T06:02:15.827Z,7.25
2022-11-18T06:03:30.491Z,7.07
2022-11-18T06:04:59.058Z,6.63
2022-11-18T06:06:05.009Z,7.13
2022-11-18T06:07:32.330Z,6.80
2022-11-18T06:08:39.120Z,7.20
2022-11-18T06:09:46.082Z,6.45
2022-11-18T06:10:49.873Z,6.93
2022-11-18T06:11:57.199Z,7.13
2022-11-18T06:13:03.423Z,7.40
2022-11-18T06:14:11.772Z,7.53
2022-11-18T06:15:22.658Z,7.53
2022-11-18T06:16:28.647Z,9.02
2022-11-18T06:17:36.506Z,7.72
2022-11-18T06:18:42.584Z,7.10
2022-11-18T06:19:45.252Z,7.03
2022-11-18T06:20:49.635Z,6.75
2022-11-18T06:21:51.374Z,7.57
2022-11-18T06:22:56.450Z,8.05
2022-11-18T06:24:03.001Z,8.15
2022-11-18T06:25:08.008Z,8.75
2022-11-18T06:26:12.231Z,7.50
2022-11-18T06:27:16.007Z,11.93
2022-11-18T06:28:20.258Z,12.55
2022-11-18T06:29:27.507Z,10.32
2022-11-18T06:30:33.569Z,9.48
2022-11-18T06:31:36.330Z,8.45
2022-11-18T06:32:37.929Z,8.73
2022-11-18T06:33:40.076Z,9.25
2022-11-18T06:34:42.271Z,8.52
2022-11-18T06:35:44.054Z,10.98
2022-11-18T06:36:45.631Z,8.63
2022-11-18T06:37:48.028Z,10.93
2022-11-18T06:38:49.702Z,11.20
2022-11-18T06:39:54.583Z,9.18
2022-11-18T06:41:00.560Z,10.40
2022-11-18T06:42:03.554Z,19.25
2022-11-18T06:43:47.318Z,29.42
2022-11-18T06:44:49.041Z,19.08
2022-11-18T06:46:12.111Z,15.85
2022-11-18T06:47:16.702Z,26.27
2022-11-18T06:48:19.202Z,38.13
2022-11-18T06:49:21.203Z,12.40
2022-11-18T06:50:24.735Z,12.20
2022-11-18T06:51:27.728Z,11.38
2022-11-18T06:52:29.353Z,12.23
2022-11-18T06:53:31.356Z,10.60
2022-11-18T06:54:34.022Z,9.70
2022-11-18T06:55:38.521Z,9.82
2022-11-18T06:56:41.047Z,11.25
2022-11-18T06:57:42.995Z,10.27
2022-11-18T06:58:45.898Z,11.00
2022-11-18T06:59:47.511Z,12.77
2022-11-18T07:00:50.991Z,11.75
2022-11-18T07:01:56.206Z,11.17
2022-11-18T07:02:59.277Z,11.45
2022-11-18T07:04:03.898Z,10.65
2022-11-18T07:05:07.152Z,13.82
2022-11-18T07:06:13.198Z,13.82
2022-11-18T07:07:15.094Z,13.05
2022-11-18T07:08:17.003Z,10.63
2022-11-18T07:09:19.408Z,14.25
2022-11-18T07:10:22.078Z,10.90
2022-11-18T07:11:26.295Z,10.43
2022-11-18T07:12:28.234Z,16.20
2022-11-18T07:13:33.274Z,13.95
2022-11-18T07:14:35.045Z,15.88
2022-11-18T07:15:37.775Z,16.27
2022-11-18T07:16:40.959Z,14.23
2022-11-18T07:17:43.005Z,14.77
2022-11-18T07:18:48.090Z,13.55
2022-11-18T07:19:50.987Z,12.48
2022-11-18T07:20:55.294Z,14.48
2022-11-18T07:22:02.822Z,14.18
2022-11-18T07:23:33.151Z,14.52
2022-11-18T07:50:03.817Z,17.40
2022-11-18T07:57:06.146Z,14.23
2022-11-18T07:58:26.088Z,15.32
2022-11-18T07:59:49.493Z,15.25
2022-11-18T08:00:55.697Z,17.20
2022-11-18T08:03:58.484Z,13.27
2022-11-18T08:05:38.588Z,13.88
2022-11-18T08:06:53.926Z,14.43
2022-11-18T08:08:24.520Z,14.38
2022-11-18T08:10:10.034Z,15.60
2022-11-18T08:13:54.098Z,15.57
2022-11-18T08:15:43.899Z,16.23
2022-11-18T08:17:59.583Z,16.70
2022-11-18T08:19:20.194Z,15.65
2022-11-18T08:20:54.915Z,15.00
2022-11-18T08:22:12.774Z,13.90
2022-11-18T08:23:37.385Z,13.00
2022-11-18T08:24:44.476Z,13.75
2022-11-18T08:26:35.203Z,13.35
2022-11-18T08:27:58.938Z,18.20
2022-11-18T08:29:05.563Z,15.20
2022-11-18T08:30:29.563Z,13.90
2022-11-18T08:31:35.787Z,13.48
2022-11-18T08:33:10.697Z,13.32
2022-11-18T08:34:17.314Z,14.48
2022-11-18T08:35:33.924Z,14.50
2022-11-18T08:36:43.255Z,14.32
2022-11-18T08:38:15.498Z,14.48
2022-11-18T08:39:35.548Z,14.90
2022-11-18T08:40:47.461Z,13.57
2022-11-18T08:42:33.965Z,14.98
2022-11-18T08:43:41.721Z,13.55
2022-11-18T08:44:46.364Z,14.18
2022-11-18T08:48:10.481Z,15.52
2022-11-18T08:49:29.616Z,13.10
2022-11-18T08:50:49.068Z,13.88
2022-11-18T08:52:07.334Z,14.63
2022-11-18T08:55:04.466Z,13.30
2022-11-18T08:56:31.591Z,13.65
2022-11-18T08:59:09.279Z,13.60
2022-11-18T09:03:31.888Z,15.85
2022-11-18T09:06:42.639Z,22.75
2022-11-18T09:15:54.089Z,13.60
2022-11-18T09:17:19.471Z,15.32
2022-11-18T09:21:00.129Z,15.70
2022-11-18T09:25:35.725Z,14.47
2022-11-18T09:26:54.450Z,12.52
2022-11-18T09:28:00.226Z,12.52
2022-11-18T09:30:55.763Z,12.02
2022-11-18T09:31:17.103Z,14.00
2022-11-18T09:32:18.753Z,13.13
2022-11-18T09:34:00.763Z,10.70
2022-11-18T09:35:03.913Z,10.88
2022-11-18T09:37:55.141Z,11.07
2022-11-18T09:40:30.151Z,10.77
2022-11-18T09:41:46.769Z,10.50
2022-11-18T09:43:09.951Z,11.30
2022-11-18T09:44:57.629Z,13.02
2022-11-18T09:47:54.160Z,12.27
2022-11-18T09:53:22.578Z,16.90
2022-11-18T09:54:35.235Z,12.90
2022-11-18T09:55:56.170Z,13.23
2022-11-18T09:57:01.901Z,12.75
2022-11-18T09:58:11.234Z,14.02
2022-11-18T09:59:16.463Z,15.68
2022-11-18T10:01:17.776Z,12.32
2022-11-18T10:03:20.351Z,11.57
2022-11-18T10:04:25.168Z,11.98
2022-11-18T10:06:02.827Z,13.23
2022-11-18T10:07:15.696Z,11.80
2022-11-18T10:08:42.010Z,15.65
2022-11-18T10:10:29.723Z,14.73
2022-11-18T10:12:16.675Z,13.73
2022-11-18T10:14:14.641Z,15.82
2022-11-18T10:16:21.741Z,12.27
2022-11-18T10:20:07.791Z,13.18
2022-11-18T10:22:22.644Z,9.63
2022-11-18T10:23:59.292Z,11.05
2022-11-18T10:25:01.666Z,12.40
2022-11-18T10:26:03.670Z,11.18
2022-11-18T10:27:11.827Z,11.55
2022-11-18T10:28:25.187Z,11.18
2022-11-18T10:29:27.544Z,14.95
2022-11-18T10:30:31.462Z,20.95
2022-11-18T10:31:36.775Z,23.25
2022-11-18T10:32:56.938Z,12.68
2022-11-18T10:34:09.498Z,12.88
2022-11-18T10:35:28.339Z,13.13
2022-11-18T10:36:57.863Z,15.77
2022-11-18T10:38:08.686Z,15.52
2022-11-18T10:39:27.060Z,16.92
2022-11-18T10:40:34.483Z,15.40
2022-11-18T10:42:05.931Z,12.82
2022-11-18T10:43:48.741Z,16.20
2022-11-18T10:44:51.410Z,14.88
2022-11-18T10:45:58.175Z,13.93
2022-11-18T10:47:30.541Z,14.85
2022-11-18T10:48:32.858Z,14.80
2022-11-18T10:49:40.924Z,14.87
2022-11-18T10:50:55.864Z,19.20
2022-11-18T10:52:12.462Z,14.65
2022-11-18T10:53:35.500Z,14.48
2022-11-18T10:54:58.385Z,34.40
2022-11-18T10:56:50.230Z,30.08
2022-11-18T11:00:32.875Z,12.95
2022-11-18T11:01:35.711Z,11.25
2022-11-18T11:04:47.250Z,11.68
2022-11-18T11:06:09.901Z,12.15
2022-11-18T11:08:34.567Z,10.73
2022-11-18T11:10:52.783Z,11.23
2022-11-18T11:13:15.464Z,10.80
2022-11-18T11:14:20.087Z,10.68
2022-11-18T11:15:44.296Z,10.48
2022-11-18T11:16:50.652Z,9.32
2022-11-18T11:18:19.221Z,8.57
2022-11-18T11:19:24.915Z,9.82
2022-11-18T11:20:26.904Z,9.68
2022-11-18T11:21:29.942Z,10.45
2022-11-18T11:22:32.556Z,7.60
2022-11-18T11:23:34.966Z,8.10
2022-11-18T11:24:37.267Z,8.82
2022-11-18T11:28:17.727Z,8.00
2022-11-18T11:29:48.568Z,10.63
2022-11-18T11:31:18.289Z,16.80
2022-11-18T11:32:25.386Z,6.93
2022-11-18T11:33:45.882Z,6.78
2022-11-18T11:35:15.293Z,6.78
2022-11-18T11:36:30.087Z,6.93
2022-11-18T11:37:50.891Z,7.15
2022-11-18T11:39:32.045Z,8.25
2022-11-18T11:40:45.462Z,6.88
2022-11-18T11:42:00.277Z,6.78
2022-11-18T11:43:26.312Z,9.55
2022-11-18T11:44:49.965Z,8.85
2022-11-18T11:46:18.258Z,7.63
2022-11-18T11:47:51.000Z,7.50
2022-11-18T11:49:11.206Z,8.77
2022-11-18T11:50:33.010Z,7.93
2022-11-18T11:51:39.919Z,8.90
2022-11-18T11:53:14.010Z,9.60
2022-11-18T11:54:34.728Z,8.48
2022-11-18T11:55:44.974Z,9.25
2022-11-18T11:56:59.666Z,10.43
2022-11-18T11:58:28.972Z,20.45
2022-11-18T12:00:02.494Z,16.08
2022-11-18T12:01:19.324Z,10.93
2022-11-18T12:02:39.021Z,11.63
2022-11-18T12:04:11.810Z,10.27
2022-11-18T12:05:31.189Z,12.53
2022-11-18T12:06:33.180Z,12.52
2022-11-18T12:07:46.440Z,11.68
2022-11-18T12:08:59.536Z,11.65
2022-11-18T12:10:38.300Z,12.75
2022-11-18T12:11:49.397Z,12.38
2022-11-18T12:13:09.920Z,11.35
2022-11-18T12:14:40.024Z,11.45
2022-11-18T12:15:46.685Z,11.02
2022-11-18T12:17:14.885Z,10.25
2022-11-18T12:18:33.319Z,10.30
2022-11-18T12:19:39.799Z,10.85
2022-11-18T12:20:50.191Z,11.88
2022-11-18T12:21:58.225Z,11.48
2022-11-18T12:23:10.390Z,13.32
2022-11-18T12:24:18.787Z,12.48
2022-11-18T12:25:48.333Z,13.37
2022-11-18T12:26:51.555Z,12.63
2022-11-18T12:27:59.904Z,11.45
2022-11-18T12:29:20.165Z,11.13
2022-11-18T12:30:22.581Z,11.55
2022-11-18T12:31:24.419Z,12.25
2022-11-18T12:32:43.128Z,10.57
2022-11-18T12:33:55.904Z,13.18
2022-11-18T12:35:05.027Z,13.52
2022-11-18T12:36:07.555Z,12.05
2022-11-18T12:37:24.727Z,12.93
2022-11-18T12:38:32.114Z,14.52
2022-11-18T12:39:36.879Z,13.27
2022-11-18T12:40:52.661Z,11.45
2022-11-18T12:42:18.852Z,12.45
2022-11-18T12:43:45.452Z,11.07
2022-11-18T12:44:49.510Z,12.23
2022-11-18T12:45:54.847Z,12.82
2022-11-18T12:46:58.110Z,12.18
2022-11-18T12:47:59.835Z,11.60
2022-11-18T12:49:23.444Z,10.95
2022-11-18T12:50:49.191Z,12.82
2022-11-18T12:51:55.730Z,11.68
2022-11-18T12:52:57.952Z,12.73
2022-11-18T12:54:00.002Z,16.13
2022-11-18T12:55:04.431Z,13.88
2022-11-18T12:56:26.611Z,13.63
2022-11-18T12:58:35.757Z,12.82
2022-11-18T12:59:37.794Z,15.38
2022-11-18T13:00:53.050Z,12.65
2022-11-18T13:02:27.234Z,13.55
2022-11-18T13:03:29.269Z,13.38
2022-11-18T13:04:31.082Z,17.00
2022-11-18T13:05:34.894Z,15.00
2022-11-18T13:06:40.860Z,13.82
2022-11-18T13:08:08.652Z,14.65
2022-11-18T13:09:21.374Z,22.10
2022-11-18T13:10:27.388Z,15.65
2022-11-18T13:11:47.723Z,23.60
2022-11-18T13:12:49.838Z,14.82
2022-11-18T13:14:13.358Z,18.67
2022-11-18T13:15:34.007Z,13.98
2022-11-18T13:16:55.267Z,14.15
2022-11-18T13:18:17.184Z,15.10
2022-11-18T13:19:24.459Z,13.00
2022-11-18T13:20:36.051Z,12.70
2022-11-18T13:21:56.292Z,13.50
2022-11-18T13:23:29.026Z,15.15
2022-11-18T13:24:30.791Z,13.82
2022-11-18T13:25:32.563Z,14.43
2022-11-18T13:26:35.453Z,11.85
2022-11-18T13:27:49.754Z,13.38
2022-11-18T13:29:06.551Z,12.70
2022-11-18T13:30:13.984Z,12.18
2022-11-18T13:31:20.043Z,12.98
2022-11-18T13:32:25.024Z,11.90
2022-11-18T13:33:27.189Z,11.07
2022-11-18T13:34:31.648Z,10.65
2022-11-18T13:35:33.488Z,11.02
2022-11-18T13:36:35.195Z,11.25
2022-11-18T13:37:51.468Z,11.25
2022-11-18T13:39:05.982Z,10.87
2022-11-18T13:40:19.831Z,11.13
2022-11-18T13:41:25.008Z,10.95
2022-11-18T13:42:32.596Z,11.05
2022-11-18T13:43:35.798Z,10.88
2022-11-18T13:44:38.648Z,10.02
2022-11-18T13:45:41.145Z,10.70
2022-11-18T13:46:44.592Z,11.10
2022-11-18T13:48:09.622Z,9.55
2022-11-18T13:49:19.906Z,10.65
2022-11-18T13:50:36.401Z,9.10
2022-11-18T13:51:38.961Z,9.23
2022-11-18T13:52:42.788Z,9.27
2022-11-18T13:53:45.067Z,9.15
2022-11-18T13:54:47.485Z,8.88
2022-11-18T13:55:59.605Z,8.63
2022-11-18T13:57:01.678Z,9.70
2022-11-18T13:59:02.549Z,8.30
2022-11-18T14:00:06.059Z,7.82
2022-11-18T14:01:19.268Z,7.43
2022-11-18T14:02:22.017Z,7.60
2022-11-18T14:03:35.572Z,8.50
2022-11-18T14:04:51.471Z,8.63
2022-11-18T14:05:57.875Z,6.60
2022-11-18T14:07:27.488Z,8.32
2022-11-18T14:08:35.048Z,8.45
2022-11-18T14:09:36.703Z,8.43
2022-11-18T14:10:45.141Z,8.63
2022-11-18T14:11:58.047Z,8.38
2022-11-18T14:13:01.247Z,8.25
2022-11-18T14:14:02.923Z,7.65
2022-11-18T14:15:42.185Z,8.80
2022-11-18T14:16:45.303Z,8.30
2022-11-18T14:17:58.641Z,8.18
2022-11-18T14:19:00.873Z,7.78
2022-11-18T14:24:27.569Z,8.45
2022-11-18T14:25:34.842Z,9.68
2022-11-18T14:26:38.749Z,8.18
2022-11-18T14:27:43.463Z,10.85
2022-11-18T14:28:58.625Z,9.00
2022-11-18T14:30:00.453Z,10.57
2022-11-18T14:31:17.354Z,9.27
2022-11-18T14:32:19.165Z,11.90
2022-11-18T14:33:27.980Z,9.85
2022-11-18T14:34:31.082Z,9.15
2022-11-18T14:35:35.096Z,9.27
2022-11-18T14:36:36.993Z,10.40
2022-11-18T14:37:38.605Z,9.13
2022-11-18T14:39:11.393Z,8.98
2022-11-18T14:40:13.699Z,11.52
2022-11-18T14:41:44.659Z,9.65
2022-11-18T14:42:47.323Z,16.30
2022-11-18T14:43:48.919Z,16.48
2022-11-18T14:44:51.065Z,15.23
2022-11-18T14:45:55.690Z,12.15
2022-11-18T14:46:58.214Z,14.02
2022-11-18T14:48:00.256Z,13.25
2022-11-18T14:49:03.704Z,12.85
2022-11-18T14:50:12.551Z,13.90
2022-11-18T14:51:15.810Z,10.50
2022-11-18T14:52:18.688Z,11.35
2022-11-18T14:53:21.512Z,12.98
2022-11-18T14:54:27.590Z,10.00
2022-11-18T14:55:29.801Z,9.95
2022-11-18T14:56:33.263Z,7.60
2022-11-18T14:57:34.983Z,6.82
2022-11-18T14:58:36.578Z,6.93
2022-11-18T14:59:38.178Z,6.80
2022-11-18T15:00:40.677Z,7.93
2022-11-18T15:01:44.372Z,6.43
2022-11-18T15:02:46.107Z,7.35
2022-11-18T15:03:47.820Z,7.53
2022-11-18T15:04:50.951Z,8.45
2022-11-18T15:05:53.008Z,6.82
2022-11-18T15:06:54.932Z,7.03
2022-11-18T15:07:56.696Z,13.55
2022-11-18T15:08:58.644Z,10.20
2022-11-18T15:26:43.536Z,12.98
2022-11-18T15:30:52.243Z,13.60
2022-11-18T15:31:53.848Z,16.17
2022-11-18T15:32:56.781Z,12.45
2022-11-18T15:34:03.478Z,13.55
2022-11-18T15:35:10.950Z,12.95
2022-11-18T15:36:15.556Z,12.65
2022-11-18T15:37:17.505Z,13.18
2022-11-18T15:38:19.121Z,13.50
2022-11-18T15:39:20.785Z,13.95
2022-11-18T15:40:22.797Z,15.07
2022-11-18T15:41:27.101Z,13.98
2022-11-18T15:42:28.696Z,13.60
2022-11-18T15:43:30.680Z,14.30
2022-11-18T15:44:32.347Z,12.43
2022-11-18T15:45:33.958Z,13.77
2022-11-18T15:46:35.975Z,16.35
2022-11-18T15:47:38.759Z,15.10
2022-11-18T15:48:41.118Z,13.95
2022-11-18T15:49:45.437Z,11.93
2022-11-18T15:50:47.200Z,16.35
2022-11-18T15:51:49.726Z,13.10
2022-11-18T15:52:51.527Z,16.33
2022-11-18T15:53:53.563Z,11.38
2022-11-18T15:54:55.301Z,10.85
2022-11-18T15:56:33.122Z,11.80
2022-11-18T15:57:35.166Z,11.10
2022-11-18T15:58:39.897Z,12.15
2022-11-18T15:59:42.069Z,12.05
2022-11-18T16:00:45.137Z,11.63
2022-11-18T16:01:54.328Z,11.65
2022-11-18T16:02:56.084Z,11.63
2022-11-18T16:03:58.096Z,11.90
2022-11-18T16:04:59.986Z,10.57
2022-11-18T16:06:01.747Z,13.20
2022-11-18T16:07:03.632Z,11.27
2022-11-18T16:08:05.673Z,13.20
2022-11-18T16:09:07.889Z,11.43
2022-11-18T16:10:28.486Z,11.02
2022-11-18T16:11:49.551Z,10.80
2022-11-18T16:12:51.157Z,11.27
2022-11-18T16:13:54.332Z,13.70
2022-11-18T16:15:16.026Z,9.90
2022-11-18T16:16:23.205Z,9.70
2022-11-18T16:17:24.840Z,10.68
2022-11-18T16:18:26.593Z,9.63
2022-11-18T16:19:31.478Z,9.85
2022-11-18T16:20:33.174Z,10.85
2022-11-18T16:21:38.788Z,10.13
2022-11-18T16:22:40.384Z,8.82
2022-11-18T16:23:41.992Z,10.68
2022-11-18T16:24:48.479Z,8.25
2022-11-18T16:25:50.434Z,8.70
2022-11-18T16:26:52.258Z,8.88
2022-11-18T16:28:00.820Z,13.30
2022-11-18T16:29:08.106Z,8.93
2022-11-18T16:30:30.286Z,8.68
2022-11-18T16:32:42.950Z,9.13
2022-11-18T16:33:44.767Z,8.50
2022-11-18T16:34:46.434Z,10.38
2022-11-18T16:35:49.212Z,8.48
2022-11-18T16:36:53.108Z,8.00
2022-11-18T16:37:55.018Z,6.72
2022-11-18T16:38:57.126Z,8.13
2022-11-18T16:39:59.121Z,6.25
2022-11-18T16:41:24.812Z,7.15
2022-11-18T16:42:26.560Z,7.65
2022-11-18T16:43:28.310Z,7.97
2022-11-18T16:44:30.046Z,7.57
2022-11-18T16:45:31.997Z,8.32
2022-11-18T16:46:35.437Z,8.52
2022-11-18T16:47:40.538Z,7.95
2022-11-18T16:48:42.511Z,7.00
2022-11-18T16:49:45.157Z,8.57
2022-11-18T16:51:00.185Z,8.35
2022-11-18T16:52:03.307Z,10.23
2022-11-18T16:53:04.992Z,8.18
2022-11-18T16:54:07.737Z,9.57
2022-11-18T16:55:09.908Z,10.00
2022-11-18T16:56:11.560Z,9.95
2022-11-18T16:57:14.266Z,9.55
2022-11-18T16:58:16.008Z,9.63
2022-11-18T16:59:21.861Z,11.35
2022-11-18T17:00:44.077Z,8.52
2022-11-18T17:01:45.490Z,10.05
2022-11-18T17:02:47.518Z,8.93
2022-11-18T17:03:51.750Z,8.93
2022-11-18T17:04:53.796Z,7.90
2022-11-18T17:06:00.636Z,7.88